createdAt,value
2023-03-28T00:01:12.654Z,102635.38
2023-03-28T00:03:40.666Z,102629.72
2023-03-28T00:06:12.385Z,102647.03
2023-03-28T00:08:40.940Z,102635.66
2023-03-28T00:11:15.543Z,102644.38
2023-03-28T00:13:43.060Z,102645.16
2023-03-28T00:16:13.643Z,102646.00
2023-03-28T00:18:43.038Z,102647.31
2023-03-28T00:21:25.949Z,102650.25
2023-03-28T00:23:55.701Z,102646.47
2023-03-28T00:26:26.928Z,102653.53
2023-03-28T00:28:54.658Z,102651.78
2023-03-28T00:31:23.419Z,102661.34
2023-03-28T00:33:51.062Z,102653.41
2023-03-28T00:36:22.770Z,102644.94
2023-03-28T00:38:52.346Z,102656.81
2023-03-28T00:41:21.765Z,102642.13
2023-03-28T00:43:52.310Z,102658.94
2023-03-28T00:46:22.856Z,102652.13
2023-03-28T00:48:54.755Z,102617.09
2023-03-28T00:51:28.153Z,102650.09
2023-03-28T00:53:59.953Z,102646.72
2023-03-28T00:56:31.558Z,102647.44
2023-03-28T00:59:02.943Z,102652.25
2023-03-28T01:01:30.576Z,102651.78
2023-03-28T01:04:02.980Z,102657.72
2023-03-28T01:06:33.523Z,102656.94
2023-03-28T01:09:04.597Z,102641.44
2023-03-28T01:11:33.975Z,102642.13
2023-03-28T01:14:04.180Z,102640.94
2023-03-28T01:16:32.622Z,102640.81
2023-03-28T01:19:02.711Z,102633.31
2023-03-28T01:21:54.852Z,102632.09
2023-03-28T01:24:43.678Z,102634.13
2023-03-28T01:27:30.996Z,102633.00
2023-03-28T01:30:02.449Z,102625.00
2023-03-28T01:32:48.679Z,102627.75
2023-03-28T01:35:34.635Z,102622.28
2023-03-28T01:38:08.189Z,102624.69
2023-03-28T01:40:39.472Z,102619.16
2023-03-28T01:43:57.092Z,102615.88
2023-03-28T01:46:31.952Z,102611.41
2023-03-28T01:49:02.225Z,102612.34
2023-03-28T01:51:47.738Z,102614.09
2023-03-28T01:54:30.141Z,102607.66
2023-03-28T01:57:15.983Z,102611.19
2023-03-28T01:59:48.939Z,102602.50
2023-03-28T02:02:31.952Z,102615.53
2023-03-28T02:05:04.283Z,102605.38
2023-03-28T02:07:33.862Z,102609.19
2023-03-28T02:10:04.728Z,102618.56
2023-03-28T02:12:38.356Z,102609.41
2023-03-28T02:15:09.797Z,102602.50
2023-03-28T02:17:43.936Z,102605.78
2023-03-28T02:20:16.757Z,102607.66
2023-03-28T02:23:07.735Z,102606.59
2023-03-28T02:25:36.585Z,102609.41
2023-03-28T02:28:07.984Z,102612.06
2023-03-28T02:30:36.775Z,102610.16
2023-03-28T02:33:08.706Z,102615.97
2023-03-28T02:35:59.612Z,102616.28
2023-03-28T02:38:47.932Z,102600.84
2023-03-28T02:41:24.585Z,102598.22
2023-03-28T02:44:02.240Z,102602.63
2023-03-28T02:46:42.894Z,102611.22
2023-03-28T02:49:49.240Z,102612.19
2023-03-28T02:52:40.150Z,102608.66
2023-03-28T02:55:19.559Z,102614.31
2023-03-28T02:57:51.726Z,102607.91
2023-03-28T03:00:21.169Z,102620.22
2023-03-28T03:02:51.671Z,102614.38
2023-03-28T03:05:21.226Z,102606.34
2023-03-28T03:07:50.346Z,102609.91
2023-03-28T03:10:18.788Z,102606.75
2023-03-28T03:12:47.359Z,102602.00
2023-03-28T03:15:17.188Z,102604.44
2023-03-28T03:17:45.182Z,102601.72
2023-03-28T03:20:13.039Z,102610.53
2023-03-28T03:22:41.001Z,102603.88
2023-03-28T03:25:10.349Z,102601.47
2023-03-28T03:27:39.405Z,102604.75
2023-03-28T03:30:07.807Z,102598.50
2023-03-28T03:32:35.561Z,102604.47
2023-03-28T03:35:03.614Z,102604.09
2023-03-28T03:37:31.196Z,102602.06
2023-03-28T03:39:58.799Z,102592.13
2023-03-28T03:42:26.375Z,102588.09
2023-03-28T03:44:54.463Z,102599.63
2023-03-28T03:47:22.044Z,102599.81
2023-03-28T03:49:49.572Z,102590.25
2023-03-28T03:52:17.248Z,102606.69
2023-03-28T03:54:44.762Z,102591.59
2023-03-28T03:57:12.337Z,102598.13
2023-03-28T03:59:39.872Z,102602.53
2023-03-28T04:02:07.429Z,102591.59
2023-03-28T04:04:35.027Z,102604.50
2023-03-28T04:07:02.537Z,102594.31
2023-03-28T04:09:30.108Z,102601.09
2023-03-28T04:11:57.745Z,102594.47
2023-03-28T04:14:25.510Z,102598.66
2023-03-28T04:16:53.787Z,102600.56
2023-03-28T04:19:24.404Z,102597.19
2023-03-28T04:21:52.690Z,102593.25
2023-03-28T04:24:24.242Z,102592.13
2023-03-28T04:26:55.936Z,102586.84
2023-03-28T04:29:30.536Z,102593.91
2023-03-28T04:31:59.291Z,102583.16
2023-03-28T04:34:30.000Z,102591.31
2023-03-28T04:37:02.544Z,102594.31
2023-03-28T04:39:35.837Z,102586.72
2023-03-28T04:42:05.835Z,102590.22
2023-03-28T04:44:33.454Z,102586.88
2023-03-28T04:47:01.834Z,102593.94
2023-03-28T04:49:29.515Z,102589.28
2023-03-28T04:51:57.074Z,102593.34
2023-03-28T04:54:24.565Z,102589.56
2023-03-28T04:56:52.161Z,102588.63
2023-03-28T04:59:20.170Z,102589.16
2023-03-28T05:01:50.022Z,102597.50
2023-03-28T05:04:18.692Z,102600.41
2023-03-28T05:06:50.836Z,102601.25
2023-03-28T05:09:18.605Z,102614.28
2023-03-28T05:11:47.120Z,102593.91
2023-03-28T05:14:15.137Z,102592.00
2023-03-28T05:16:42.897Z,102598.41
2023-03-28T05:19:11.134Z,102606.13
2023-03-28T05:21:38.687Z,102605.84
2023-03-28T05:24:06.876Z,102608.56
2023-03-28T05:26:34.426Z,102602.19
2023-03-28T05:29:01.939Z,102609.50
2023-03-28T05:31:30.733Z,102597.56
2023-03-28T05:33:58.461Z,102603.47
2023-03-28T05:36:26.277Z,102599.31
2023-03-28T05:38:53.900Z,102607.75
2023-03-28T05:41:21.528Z,102616.84
2023-03-28T05:43:49.048Z,102613.56
2023-03-28T05:46:16.621Z,102609.09
2023-03-28T05:48:44.236Z,102624.44
2023-03-28T05:51:17.509Z,102622.91
2023-03-28T05:53:45.381Z,102620.50
2023-03-28T05:56:12.969Z,102626.19
2023-03-28T05:58:41.616Z,102616.97
2023-03-28T06:01:10.005Z,102618.00
2023-03-28T06:03:40.078Z,102613.66
2023-03-28T06:06:08.388Z,102619.91
2023-03-28T06:08:36.185Z,102620.13
2023-03-28T06:11:04.797Z,102605.09
2023-03-28T06:13:32.360Z,102617.94
2023-03-28T06:15:59.977Z,102613.16
2023-03-28T06:18:27.568Z,102614.84
2023-03-28T06:20:55.123Z,102618.50
2023-03-28T06:23:22.943Z,102618.84
2023-03-28T06:25:50.691Z,102609.03
2023-03-28T06:28:18.245Z,102597.53
2023-03-28T06:30:50.409Z,102595.72
2023-03-28T06:33:17.896Z,102610.34
2023-03-28T06:35:46.284Z,102610.47
2023-03-28T06:38:13.894Z,102624.22
2023-03-28T06:40:41.591Z,102621.38
2023-03-28T06:43:09.185Z,102619.09
2023-03-28T06:45:36.811Z,102625.31
2023-03-28T06:48:04.686Z,102616.75
2023-03-28T06:50:32.371Z,102626.19
2023-03-28T06:52:59.949Z,102626.59
2023-03-28T06:55:27.711Z,102621.31
2023-03-28T06:57:55.399Z,102619.97
2023-03-28T07:00:23.393Z,102612.81
2023-03-28T07:02:51.060Z,102619.81
2023-03-28T07:05:18.836Z,102617.88
2023-03-28T07:07:46.454Z,102616.84
2023-03-28T07:10:14.013Z,102625.44
2023-03-28T07:12:41.636Z,102625.94
2023-03-28T07:15:09.624Z,102630.19
2023-03-28T07:17:37.270Z,102627.53
2023-03-28T07:20:05.391Z,102629.38
2023-03-28T07:22:33.158Z,102633.50
2023-03-28T07:25:00.853Z,102630.72
2023-03-28T07:27:28.322Z,102625.13
2023-03-28T07:29:55.995Z,102617.09
2023-03-28T07:32:23.783Z,102624.47
2023-03-28T07:34:51.436Z,102616.22
2023-03-28T07:37:19.070Z,102614.00
2023-03-28T07:39:46.742Z,102620.63
2023-03-28T07:42:15.921Z,102624.75
2023-03-28T07:44:43.726Z,102606.34
2023-03-28T07:47:11.503Z,102619.50
2023-03-28T07:49:39.567Z,102621.94
2023-03-28T07:52:07.421Z,102625.34
2023-03-28T07:54:35.178Z,102622.56
2023-03-28T07:57:02.778Z,102623.81
2023-03-28T07:59:30.383Z,102625.16
2023-03-28T08:01:58.181Z,102625.72
2023-03-28T08:04:25.789Z,102624.44
2023-03-28T08:06:53.309Z,102621.38
2023-03-28T08:09:21.267Z,102612.84
2023-03-28T08:11:48.831Z,102610.50
2023-03-28T08:14:18.891Z,102618.16
2023-03-28T08:16:47.016Z,102605.88
2023-03-28T08:19:14.874Z,102610.72
2023-03-28T08:21:42.467Z,102600.78
2023-03-28T08:24:12.913Z,102603.03
2023-03-28T08:26:47.394Z,102614.47
2023-03-28T08:29:16.363Z,102607.13
2023-03-28T08:31:43.983Z,102606.06
2023-03-28T08:34:11.520Z,102604.88
2023-03-28T08:36:39.040Z,102604.09
2023-03-28T08:39:06.661Z,102611.50
2023-03-28T08:42:00.138Z,102612.09
2023-03-28T08:44:43.075Z,102617.28
2023-03-28T08:47:18.636Z,102608.63
2023-03-28T08:49:49.372Z,102607.34
2023-03-28T08:52:20.129Z,102598.50
2023-03-28T08:54:56.283Z,102599.84
2023-03-28T08:57:29.287Z,102603.53
2023-03-28T09:00:03.657Z,102607.19
2023-03-28T09:02:32.511Z,102601.91
2023-03-28T09:05:11.934Z,102605.72
2023-03-28T09:07:59.821Z,102589.81
2023-03-28T09:10:43.894Z,102596.34
2023-03-28T09:13:14.513Z,102594.91
2023-03-28T09:15:47.585Z,102604.31
2023-03-28T09:18:33.258Z,102594.91
2023-03-28T09:21:03.447Z,102601.09
2023-03-28T09:23:39.686Z,102597.63
2023-03-28T09:26:18.974Z,102593.88
2023-03-28T09:29:14.702Z,102587.28
2023-03-28T09:31:47.823Z,102579.09
2023-03-28T09:34:23.154Z,102579.44
2023-03-28T09:36:55.326Z,102589.94
2023-03-28T09:39:28.518Z,102586.84
2023-03-28T09:42:09.333Z,102580.97
2023-03-28T09:44:59.144Z,102576.84
2023-03-28T09:47:27.364Z,102571.75
2023-03-28T09:50:05.618Z,102574.09
2023-03-28T09:52:37.714Z,102558.22
2023-03-28T09:55:05.476Z,102557.75
2023-03-28T09:58:02.769Z,102553.97
2023-03-28T10:00:30.722Z,102557.81
2023-03-28T10:02:58.312Z,102545.72
2023-03-28T10:05:40.125Z,102542.69
2023-03-28T10:08:24.104Z,102528.44
2023-03-28T10:10:57.793Z,102539.63
2023-03-28T10:13:26.264Z,102536.50
2023-03-28T10:15:57.873Z,102541.03
2023-03-28T10:18:28.738Z,102533.56
2023-03-28T10:20:57.434Z,102525.09
2023-03-28T10:23:26.139Z,102515.09
2023-03-28T10:25:56.399Z,102528.00
2023-03-28T10:28:36.486Z,102520.75
2023-03-28T10:31:04.922Z,102522.44
2023-03-28T10:33:38.246Z,102526.13
2023-03-28T10:36:09.586Z,102519.34
2023-03-28T10:38:49.373Z,102507.34
2023-03-28T10:41:26.110Z,102507.50
2023-03-28T10:43:54.881Z,102495.28
2023-03-28T10:46:36.125Z,102486.00
2023-03-28T10:49:14.308Z,102486.44
2023-03-28T10:51:43.759Z,102486.72
2023-03-28T10:54:35.276Z,102474.13
2023-03-28T10:57:17.814Z,102481.88
2023-03-28T10:59:51.424Z,102476.38
2023-03-28T11:02:37.782Z,102472.00
2023-03-28T11:05:33.023Z,102467.63
2023-03-28T11:08:10.928Z,102465.06
2023-03-28T11:11:00.179Z,102453.28
2023-03-28T11:13:33.753Z,102453.84
2023-03-28T11:16:22.303Z,102448.06
2023-03-28T11:19:06.051Z,102408.50
2023-03-28T11:21:58.277Z,102418.44
2023-03-28T11:24:32.016Z,102428.63
2023-03-28T11:27:18.226Z,102426.16
2023-03-28T11:29:50.874Z,102427.41
2023-03-28T11:32:21.691Z,102422.56
2023-03-28T11:35:03.271Z,102427.97
2023-03-28T11:37:54.880Z,102423.53
2023-03-28T11:40:28.214Z,102411.25
2023-03-28T11:43:04.503Z,102412.50
2023-03-28T11:45:53.025Z,102415.34
2023-03-28T11:48:49.246Z,102395.66
2023-03-28T11:51:21.736Z,102400.53
2023-03-28T11:54:13.146Z,102390.78
2023-03-28T11:56:53.279Z,102383.59
2023-03-28T11:59:39.608Z,102385.03
2023-03-28T12:02:31.906Z,102379.34
2023-03-28T12:05:20.993Z,102377.03
2023-03-28T12:07:53.992Z,102367.16
2023-03-28T12:10:26.452Z,102367.56
2023-03-28T12:13:17.808Z,102367.41
2023-03-28T12:15:53.137Z,102351.66
2023-03-28T12:18:28.310Z,102352.28
2023-03-28T12:21:14.905Z,102356.84
2023-03-28T12:24:11.400Z,102344.47
2023-03-28T12:26:58.046Z,102346.16
2023-03-28T12:29:40.205Z,102345.09
2023-03-28T12:32:26.603Z,102338.09
2023-03-28T12:35:00.252Z,102339.75
2023-03-28T12:37:36.577Z,102333.31
2023-03-28T12:40:19.929Z,102328.69
2023-03-28T12:42:48.790Z,102318.88
2023-03-28T12:45:23.954Z,102310.25
2023-03-28T12:47:54.924Z,102314.69
2023-03-28T12:50:40.542Z,102311.91
2023-03-28T12:53:12.640Z,102308.44
2023-03-28T12:55:51.597Z,102323.88
2023-03-28T12:58:38.122Z,102313.13
2023-03-28T13:01:08.693Z,102313.06
2023-03-28T13:04:04.535Z,102304.13
2023-03-28T13:07:18.414Z,102300.66
2023-03-28T13:10:12.868Z,102309.16
2023-03-28T13:13:11.223Z,102295.34
2023-03-28T13:15:56.536Z,102293.50
2023-03-28T13:18:31.339Z,102291.91
2023-03-28T13:21:00.414Z,102295.00
2023-03-28T13:23:35.685Z,102286.00
2023-03-28T13:26:06.514Z,102284.34
2023-03-28T13:28:48.400Z,102258.16
2023-03-28T13:31:19.059Z,102263.63
2023-03-28T13:33:49.702Z,102262.72
2023-03-28T13:36:23.150Z,102252.22
2023-03-28T13:39:00.467Z,102242.25
2023-03-28T13:41:43.652Z,102232.06
2023-03-28T13:44:15.288Z,102231.28
2023-03-28T13:46:43.909Z,102228.56
2023-03-28T13:49:11.524Z,102226.69
2023-03-28T13:52:04.795Z,102213.31
2023-03-28T13:54:32.933Z,102210.84
2023-03-28T13:57:06.514Z,102209.84
2023-03-28T13:59:38.134Z,102205.66
2023-03-28T14:02:20.232Z,102206.63
2023-03-28T14:04:57.077Z,102207.56
2023-03-28T14:07:26.409Z,102201.34
2023-03-28T14:09:56.124Z,102201.25
2023-03-28T14:12:28.554Z,102196.78
2023-03-28T14:14:59.270Z,102183.78
2023-03-28T14:17:36.391Z,102182.00
2023-03-28T14:20:08.239Z,102175.19
2023-03-28T14:22:52.837Z,102173.28
2023-03-28T14:25:26.316Z,102173.44
2023-03-28T14:27:56.428Z,102156.63
2023-03-28T14:30:29.916Z,102163.56
2023-03-28T14:32:59.889Z,102161.03
2023-03-28T14:35:31.982Z,102158.38
2023-03-28T14:38:03.853Z,102144.41
2023-03-28T14:40:36.441Z,102138.44
2023-03-28T14:43:07.289Z,102132.28
2023-03-28T14:45:37.620Z,102122.81
2023-03-28T14:48:09.375Z,102116.66
2023-03-28T14:50:39.888Z,102115.84
2023-03-28T14:53:10.459Z,102115.06
2023-03-28T14:55:38.651Z,102104.75
2023-03-28T14:58:07.179Z,102093.44
2023-03-28T15:00:41.988Z,102102.94
2023-03-28T15:03:15.754Z,102088.25
2023-03-28T15:05:50.024Z,102092.53
2023-03-28T15:08:36.803Z,102093.50
2023-03-28T15:11:22.208Z,102096.94
2023-03-28T15:13:58.675Z,102091.75
2023-03-28T15:16:27.849Z,102077.75
2023-03-28T15:19:07.089Z,102082.06
2023-03-28T15:21:40.044Z,102067.97
2023-03-28T15:24:13.447Z,102074.19
2023-03-28T15:26:48.042Z,102070.69
2023-03-28T15:29:19.516Z,102065.56
2023-03-28T15:31:47.673Z,102063.78
2023-03-28T15:34:27.401Z,102065.53
2023-03-28T15:37:03.818Z,102065.50
2023-03-28T15:39:36.088Z,102065.56
2023-03-28T15:42:22.733Z,102062.03
2023-03-28T15:44:59.633Z,102056.69
2023-03-28T15:47:30.596Z,102034.06
2023-03-28T15:50:09.525Z,102057.41
2023-03-28T15:52:37.584Z,102045.31
2023-03-28T15:55:06.966Z,102061.44
2023-03-28T15:57:34.660Z,102044.09
2023-03-28T16:00:02.283Z,102046.88
2023-03-28T16:02:33.229Z,102055.78
2023-03-28T16:05:15.846Z,102042.69
2023-03-28T16:07:46.734Z,102051.06
2023-03-28T16:10:17.519Z,102045.00
2023-03-28T16:12:46.077Z,102046.84
2023-03-28T16:15:14.318Z,102051.94
2023-03-28T16:17:44.728Z,102044.06
2023-03-28T16:20:26.240Z,102044.91
2023-03-28T16:22:53.767Z,102052.53
2023-03-28T16:25:21.315Z,102042.09
2023-03-28T16:27:48.960Z,102051.47
2023-03-28T16:30:40.476Z,102045.53
2023-03-28T16:33:08.159Z,102038.66
2023-03-28T16:35:36.552Z,102039.56
2023-03-28T16:38:04.341Z,102038.72
2023-03-28T16:40:31.903Z,102019.44
2023-03-28T16:43:00.139Z,102022.13
2023-03-28T16:45:29.777Z,102012.69
2023-03-28T16:47:57.613Z,102008.41
2023-03-28T16:50:25.179Z,102007.44
2023-03-28T16:52:52.746Z,102003.22
2023-03-28T16:55:20.464Z,101991.84
2023-03-28T16:57:48.016Z,101991.91
2023-03-28T17:00:18.056Z,101995.34
2023-03-28T17:02:49.083Z,101987.50
2023-03-28T17:05:17.849Z,101983.00
2023-03-28T17:07:45.507Z,101988.41
2023-03-28T17:10:13.465Z,101982.31
2023-03-28T17:12:41.389Z,101986.75
2023-03-28T17:15:10.006Z,101963.13
2023-03-28T17:17:37.607Z,101960.28
2023-03-28T17:20:06.523Z,101966.34
2023-03-28T17:22:34.143Z,101969.75
2023-03-28T17:25:02.092Z,101962.06
2023-03-28T17:27:30.136Z,101960.97
2023-03-28T17:29:57.905Z,101956.94
2023-03-28T17:32:25.794Z,101953.34
2023-03-28T17:34:53.715Z,101952.34
2023-03-28T17:37:24.318Z,101952.63
2023-03-28T17:39:52.413Z,101955.06
2023-03-28T17:42:19.886Z,101949.81
2023-03-28T17:44:47.378Z,101932.56
2023-03-28T17:47:15.227Z,101942.97
2023-03-28T17:49:43.215Z,101944.63
2023-03-28T17:52:11.233Z,101944.59
2023-03-28T17:54:38.792Z,101929.94
2023-03-28T17:57:08.024Z,101927.41
2023-03-28T17:59:36.180Z,101907.22
2023-03-28T18:02:04.099Z,101923.88
2023-03-28T18:04:31.845Z,101929.09
2023-03-28T18:06:59.357Z,101932.63
2023-03-28T18:09:27.508Z,101925.72
2023-03-28T18:11:55.378Z,101915.31
2023-03-28T18:14:22.876Z,101930.88
2023-03-28T18:16:50.804Z,101929.94
2023-03-28T18:19:18.664Z,101940.44
2023-03-28T18:21:47.058Z,101938.69
2023-03-28T18:24:14.767Z,101938.72
2023-03-28T18:26:42.390Z,101933.56
2023-03-28T18:29:10.050Z,101937.84
2023-03-28T18:31:39.027Z,101929.84
2023-03-28T18:34:06.731Z,101934.25
2023-03-28T18:36:36.925Z,101932.31
2023-03-28T18:39:06.029Z,101921.16
2023-03-28T18:41:33.702Z,101911.47
2023-03-28T18:44:01.314Z,101917.69
2023-03-28T18:46:29.813Z,101913.38
2023-03-28T18:48:59.621Z,101913.25
2023-03-28T18:51:27.674Z,101908.84
2023-03-28T18:53:55.824Z,101908.56
2023-03-28T18:56:23.803Z,101898.22
2023-03-28T18:58:51.436Z,101900.97
2023-03-28T19:01:20.493Z,101897.63
2023-03-28T19:03:49.968Z,101886.78
2023-03-28T19:06:17.808Z,101878.06
2023-03-28T19:08:50.074Z,101874.25
2023-03-28T19:11:19.617Z,101879.69
2023-03-28T19:13:47.105Z,101873.69
2023-03-28T19:16:19.040Z,101872.78
2023-03-28T19:18:47.992Z,101865.81
2023-03-28T19:21:16.677Z,101863.25
2023-03-28T19:23:44.550Z,101864.34
2023-03-28T19:26:13.702Z,101856.50
2023-03-28T19:28:41.885Z,101857.19
2023-03-28T19:31:11.990Z,101851.88
2023-03-28T19:33:40.738Z,101850.13
2023-03-28T19:36:08.970Z,101863.22
2023-03-28T19:38:38.304Z,101845.97
2023-03-28T19:41:10.872Z,101849.19
2023-03-28T19:43:39.691Z,101843.06
2023-03-28T19:46:09.622Z,101851.75
2023-03-28T19:48:37.575Z,101846.16
2023-03-28T19:51:05.175Z,101853.06
2023-03-28T19:53:35.031Z,101854.91
2023-03-28T19:56:02.838Z,101851.50
2023-03-28T19:58:31.236Z,101846.97
2023-03-28T20:00:58.957Z,101835.03
2023-03-28T20:03:26.703Z,101847.13
2023-03-28T20:05:54.410Z,101841.13
2023-03-28T20:08:22.041Z,101847.28
2023-03-28T20:10:53.713Z,101845.16
2023-03-28T20:13:21.448Z,101836.84
2023-03-28T20:15:49.130Z,101834.91
2023-03-28T20:18:19.963Z,101847.00
2023-03-28T20:20:56.708Z,101847.06
2023-03-28T20:23:26.067Z,101845.50
2023-03-28T20:25:54.967Z,101831.63
2023-03-28T20:28:25.053Z,101832.38
2023-03-28T20:30:54.242Z,101821.63
2023-03-28T20:33:22.437Z,101818.22
2023-03-28T20:35:58.245Z,101812.84
2023-03-28T20:38:27.095Z,101817.69
2023-03-28T20:40:54.750Z,101803.22
2023-03-28T20:43:26.568Z,101811.69
2023-03-28T20:45:56.141Z,101805.63
2023-03-28T20:48:34.463Z,101813.38
2023-03-28T20:51:06.828Z,101809.47
2023-03-28T20:53:34.831Z,101804.31
2023-03-28T20:56:04.859Z,101815.94
2023-03-28T20:58:33.795Z,101809.63
2023-03-28T21:01:05.223Z,101788.53
2023-03-28T21:03:46.656Z,101790.03
2023-03-28T21:06:18.278Z,101793.78
2023-03-28T21:08:47.618Z,101790.28
2023-03-28T21:11:18.419Z,101783.44
2023-03-28T21:13:46.418Z,101788.28
2023-03-28T21:16:15.872Z,101779.81
2023-03-28T21:18:44.221Z,101776.25
2023-03-28T21:21:14.018Z,101774.53
2023-03-28T21:23:42.148Z,101777.75
2023-03-28T21:26:12.450Z,101776.31
2023-03-28T21:28:40.851Z,101765.78
2023-03-28T21:31:15.413Z,101771.25
2023-03-28T21:33:43.513Z,101768.34
2023-03-28T21:36:14.268Z,101759.75
2023-03-28T21:38:41.918Z,101769.56
2023-03-28T21:41:11.256Z,101769.38
2023-03-28T21:43:39.737Z,101768.59
2023-03-28T21:46:08.397Z,101773.09
2023-03-28T21:48:36.681Z,101765.75
2023-03-28T21:51:04.888Z,101769.97
2023-03-28T21:53:38.630Z,101759.00
2023-03-28T21:56:06.808Z,101757.56
2023-03-28T21:58:34.975Z,101752.28
2023-03-28T22:01:04.737Z,101760.13
2023-03-28T22:03:32.861Z,101755.38
2023-03-28T22:06:00.414Z,101761.25
2023-03-28T22:08:28.067Z,101771.41
2023-03-28T22:10:58.553Z,101759.09
2023-03-28T22:13:28.843Z,101748.34
2023-03-28T22:15:58.443Z,101748.47
2023-03-28T22:18:26.959Z,101747.91
2023-03-28T22:20:54.762Z,101744.84
2023-03-28T22:23:24.458Z,101734.66
2023-03-28T22:25:53.097Z,101724.53
2023-03-28T22:28:24.446Z,101730.41
2023-03-28T22:30:55.114Z,101723.72
2023-03-28T22:33:23.564Z,101716.72
2023-03-28T22:35:51.246Z,101705.09
2023-03-28T22:38:19.624Z,101715.41
2023-03-28T22:40:47.604Z,101716.97
2023-03-28T22:43:16.315Z,101705.50
2023-03-28T22:45:44.231Z,101700.34
2023-03-28T22:48:14.525Z,101707.16
2023-03-28T22:50:44.464Z,101696.69
2023-03-28T22:53:14.221Z,101682.06
2023-03-28T22:55:42.395Z,101684.66
2023-03-28T22:58:10.084Z,101690.00
2023-03-28T23:00:37.741Z,101685.53
2023-03-28T23:03:05.482Z,101681.69
2023-03-28T23:05:33.256Z,101668.28
2023-03-28T23:08:00.997Z,101669.03
2023-03-28T23:10:28.884Z,101669.00
2023-03-28T23:12:56.436Z,101662.22
2023-03-28T23:15:24.267Z,101657.06
2023-03-28T23:17:52.092Z,101656.25
2023-03-28T23:20:20.165Z,101656.28
2023-03-28T23:22:49.372Z,101648.88
2023-03-28T23:25:19.337Z,101650.34
2023-03-28T23:27:47.548Z,101649.91
2023-03-28T23:30:16.638Z,101642.97
2023-03-28T23:32:44.284Z,101635.22
2023-03-28T23:35:12.240Z,101638.69
2023-03-28T23:37:40.485Z,101636.22
2023-03-28T23:40:14.053Z,101625.56
2023-03-28T23:42:44.514Z,101624.00
2023-03-28T23:45:14.958Z,101608.38
2023-03-28T23:47:43.833Z,101613.44
2023-03-28T23:50:12.039Z,101592.97
2023-03-28T23:52:39.828Z,101590.28
2023-03-28T23:55:08.902Z,101585.81
2023-03-28T23:57:37.272Z,101594.63
